Time;durP1;ratioP1;P1;durP2;ratioP2;P2;SDS_P1;SDS_P2;PMS_P1;PMS_P2;Temp;Humidity;BMP_temperature;BMP_pressure;BME280_temperature;BME280_humidity;BME280_pressure;Samples;Min_cycle;Max_cycle;Signal;HPM_P1;HPM_P2
2022/09/14 00:01:12;;;;;;;10.45;7.62;;;;;;;10.38;100.00;99264.86;1713044;83;21062;-68
2022/09/14 00:03:39;;;;;;;13.72;8.30;;;;;;;10.40;100.00;99266.92;1711527;83;21026;-68
2022/09/14 00:06:08;;;;;;;11.45;7.78;;;;;;;10.40;100.00;99269.56;1680613;85;21057;-68
2022/09/14 00:08:35;;;;;;;13.90;8.35;;;;;;;10.40;100.00;99264.30;1680649;85;21575;-67
2022/09/14 00:11:12;;;;;;;10.13;7.95;;;;;;;10.40;100.00;99258.59;1712905;83;21219;-67
2022/09/14 00:13:42;;;;;;;13.25;9.40;;;;;;;10.41;100.00;99260.75;1680068;85;21126;-66
2022/09/14 00:16:17;;;;;;;11.80;8.25;;;;;;;10.40;100.00;99261.66;1712892;83;21537;-65
2022/09/14 00:18:44;;;;;;;10.98;7.67;;;;;;;10.41;100.00;99259.44;1710842;83;21157;-67
2022/09/14 00:21:11;;;;;;;13.38;7.62;;;;;;;10.40;100.00;99257.28;1680828;85;21132;-67
2022/09/14 00:23:39;;;;;;;13.08;8.35;;;;;;;10.40;100.00;99257.72;1680373;85;21208;-67
2022/09/14 00:26:12;;;;;;;10.68;7.33;;;;;;;10.38;100.00;99253.87;1680409;85;21046;-66
2022/09/14 00:28:41;;;;;;;12.53;7.87;;;;;;;10.42;100.00;99255.42;1712666;83;21073;-67
2022/09/14 00:31:08;;;;;;;9.90;7.20;;;;;;;10.42;100.00;99254.11;1680539;85;21627;-67
2022/09/14 00:33:36;;;;;;;12.37;7.58;;;;;;;10.41;100.00;99253.70;1712856;83;21039;-65
2022/09/14 00:36:07;;;;;;;12.45;8.05;;;;;;;10.41;100.00;99248.91;1680502;85;21289;-68
2022/09/14 00:38:34;;;;;;;11.43;7.05;;;;;;;10.43;100.00;99256.27;1713199;83;21057;-67
2022/09/14 00:41:02;;;;;;;12.43;7.42;;;;;;;10.42;100.00;99254.55;1680617;85;21061;-68
2022/09/14 00:43:29;;;;;;;10.88;7.28;;;;;;;10.42;100.00;99255.42;1713013;83;21054;-68
2022/09/14 00:45:55;;;;;;;9.75;6.70;;;;;;;10.43;100.00;99260.22;1680581;85;21086;-67
2022/09/14 00:48:23;;;;;;;10.35;7.20;;;;;;;10.44;100.00;99250.06;1680631;85;21866;-66
2022/09/14 00:50:51;;;;;;;9.33;6.92;;;;;;;10.46;100.00;99248.20;1712817;83;21065;-68
2022/09/14 00:53:17;;;;;;;9.55;7.25;;;;;;;10.44;100.00;99252.69;1680699;85;21057;-67
2022/09/14 00:57:43;;;;;;;9.55;6.47;;;;;;;10.36;100.00;99249.61;1814241;79;28122;-67
2022/09/14 01:00:10;;;;;;;;;;;;;;;10.31;100.00;99252.47;1790255;80;21335;-66
2022/09/14 01:02:38;;;;;;;8.85;6.33;;;;;;;10.36;100.00;99252.24;1787553;80;21152;-67
2022/09/14 01:05:06;;;;;;;8.23;5.62;;;;;;;10.35;100.00;99250.52;1757168;80;21103;-68
2022/09/14 01:07:56;;;;;;;7.87;6.62;;;;;;;10.37;100.00;99253.93;1787410;80;21021;-67
2022/09/14 01:10:39;;;;;;;9.03;6.58;;;;;;;10.36;100.00;99250.92;1787755;80;21068;-66
2022/09/14 01:13:27;;;;;;;7.70;5.85;;;;;;;10.33;100.00;99252.38;1756753;80;21048;-67
2022/09/14 01:16:27;;;;;;;10.78;7.37;;;;;;;10.32;100.00;99249.38;1787444;80;21181;-68
2022/09/14 01:18:59;;;;;;;9.80;6.87;;;;;;;10.32;100.00;99252.00;1750512;82;21053;-66
2022/09/14 01:21:31;;;;;;;9.83;6.40;;;;;;;10.31;100.00;99246.33;1750668;82;21586;-66
2022/09/14 01:24:27;;;;;;;10.18;7.37;;;;;;;10.33;100.00;99247.11;1749871;82;21088;-66
2022/09/14 01:27:22;;;;;;;11.35;6.78;;;;;;;10.34;100.00;99250.15;1748150;82;21121;-66
2022/09/14 01:30:00;;;;;;;11.03;7.25;;;;;;;10.36;100.00;99244.34;1750212;82;21932;-66
2022/09/14 01:32:47;;;;;;;9.63;7.05;;;;;;;10.36;100.00;99249.14;1750016;82;21058;-66
2022/09/14 01:35:35;;;;;;;10.13;7.70;;;;;;;10.40;100.00;99244.55;1748754;82;21077;-67
2022/09/14 01:38:13;;;;;;;9.40;7.67;;;;;;;10.43;100.00;99236.53;1750408;82;21064;-66
2022/09/14 01:40:48;;;;;;;13.85;7.75;;;;;;;10.43;100.00;99233.89;1750393;82;21643;-67
2022/09/14 01:43:24;;;;;;;10.28;7.33;;;;;;;10.43;100.00;99232.58;1750413;82;21073;-67
2022/09/14 01:46:02;;;;;;;10.63;7.72;;;;;;;10.44;100.00;99235.58;1750643;82;21057;-66
2022/09/14 01:48:39;;;;;;;9.53;7.90;;;;;;;10.45;100.00;99230.72;1750154;82;21058;-67
2022/09/14 01:51:11;;;;;;;11.28;8.03;;;;;;;10.46;100.00;99232.41;1750246;82;21562;-67
2022/09/14 01:53:51;;;;;;;14.28;8.68;;;;;;;10.45;100.00;99226.30;1750699;82;21030;-67
2022/09/14 01:56:30;;;;;;;12.45;8.38;;;;;;;10.44;100.00;99223.73;1746062;82;22188;-67
2022/09/14 01:59:07;;;;;;;11.10;7.83;;;;;;;10.47;100.00;99226.23;1736449;82;21582;-67
2022/09/14 02:01:38;;;;;;;14.13;8.40;;;;;;;10.47;100.00;99227.08;1736960;82;21097;-67
2022/09/14 02:04:08;;;;;;;11.43;8.18;;;;;;;10.49;100.00;99225.22;1736934;82;21050;-67
2022/09/14 02:06:44;;;;;;;;;;;;;;;10.49;100.00;99219.11;1739695;82;21120;-67
2022/09/14 02:09:13;;;;;;;15.50;9.20;;;;;;;10.49;100.00;99219.95;1736901;82;21678;-67
2022/09/14 02:11:41;;;;;;;13.98;9.15;;;;;;;10.51;100.00;99213.28;1736490;82;26422;-66
2022/09/14 02:14:07;;;;;;;12.43;8.05;;;;;;;10.50;100.00;99207.64;1736354;82;21081;-66
2022/09/14 02:16:35;;;;;;;13.68;9.43;;;;;;;10.52;100.00;99208.41;1736332;82;21081;-67
2022/09/14 02:19:01;;;;;;;13.20;8.13;;;;;;;10.52;100.00;99204.47;1715626;82;21148;-65
2022/09/14 02:21:30;;;;;;;12.85;8.70;;;;;;;10.54;100.00;99203.08;1736476;82;21249;-67
2022/09/14 02:23:58;;;;;;;11.60;8.45;;;;;;;10.56;100.00;99207.77;1736586;82;21011;-67
2022/09/14 02:26:25;;;;;;;11.22;8.35;;;;;;;10.56;100.00;99204.70;1736781;82;21046;-65
2022/09/14 02:28:54;;;;;;;12.47;8.05;;;;;;;10.56;100.00;99199.44;1736483;82;21050;-66
2022/09/14 02:31:33;;;;;;;10.93;8.08;;;;;;;10.57;100.00;99198.49;1736943;82;22077;-67
2022/09/14 02:34:42;;;;;;;11.73;7.95;;;;;;;10.61;100.00;99198.73;1736641;82;21290;-67
2022/09/14 02:37:26;;;;;;;11.73;7.92;;;;;;;10.62;100.00;99204.36;1735640;82;21486;-68
2022/09/14 02:40:01;;;;;;;11.45;8.68;;;;;;;10.64;100.00;99199.03;1736289;82;21167;-66
2022/09/14 02:43:05;;;;;;;12.30;8.58;;;;;;;10.64;100.00;99199.88;1736428;82;21101;-68
2022/09/14 02:45:51;;;;;;;9.43;7.10;;;;;;;10.66;100.00;99201.96;1736347;82;21029;-66
2022/09/14 02:48:45;;;;;;;11.60;6.95;;;;;;;10.66;100.00;99205.91;1736295;82;21724;-67
2022/09/14 02:51:32;;;;;;;12.95;7.97;;;;;;;10.64;100.00;99199.88;1736173;82;21125;-67
2022/09/14 02:54:19;;;;;;;11.53;7.90;;;;;;;10.66;100.00;99199.33;1736634;82;21275;-67
2022/09/14 02:56:46;;;;;;;14.90;8.68;;;;;;;10.64;100.00;99205.61;1739229;82;21098;-67
2022/09/14 02:59:12;;;;;;;10.75;7.80;;;;;;;10.64;100.00;99198.55;1744609;82;21077;-67
2022/09/14 03:01:39;;;;;;;10.15;7.50;;;;;;;10.62;100.00;99200.41;1744893;82;21081;-67
2022/09/14 03:04:05;;;;;;;10.72;7.65;;;;;;;10.66;100.00;99200.64;1744683;82;21093;-68
2022/09/14 03:06:32;;;;;;;9.23;6.28;;;;;;;10.66;100.00;99195.38;1744733;82;21054;-66
2022/09/14 03:08:58;;;;;;;9.70;7.17;;;;;;;10.65;100.00;99189.74;1745213;82;21065;-67
2022/09/14 03:11:24;;;;;;;9.23;7.28;;;;;;;10.68;100.00;99193.99;1744715;82;21081;-66
2022/09/14 03:13:51;;;;;;;10.80;7.50;;;;;;;10.68;100.00;99197.94;1744686;82;21190;-66
2022/09/14 03:16:18;;;;;;;7.97;6.25;;;;;;;10.65;100.00;99185.80;1744172;82;21092;-67
2022/09/14 03:18:45;;;;;;;9.55;6.65;;;;;;;10.68;100.00;99181.67;1744515;81;21018;-67
2022/09/14 03:21:14;;;;;;;10.68;6.80;;;;;;;10.68;100.00;99182.98;1744856;82;21058;-67
2022/09/14 03:23:48;;;;;;;11.35;6.92;;;;;;;10.70;100.00;99186.39;1744597;82;21085;-68
2022/09/14 03:26:17;;;;;;;9.35;6.78;;;;;;;10.65;100.00;99191.06;1744872;82;21209;-67
2022/09/14 03:28:44;;;;;;;10.03;7.10;;;;;;;10.65;100.00;99191.06;1744528;82;21046;-66
2022/09/14 03:31:11;;;;;;;12.33;7.28;;;;;;;10.65;100.00;99183.16;1744595;82;21178;-67
2022/09/14 03:33:41;;;;;;;8.10;7.10;;;;;;;10.67;100.00;99178.67;1722345;82;21090;-66
2022/09/14 03:36:18;;;;;;;8.53;6.47;;;;;;;10.71;100.00;99181.97;1744586;82;21100;-69
2022/09/14 03:38:47;;;;;;;8.58;6.97;;;;;;;10.66;100.00;99176.95;1744873;82;21132;-68
2022/09/14 03:41:14;;;;;;;12.80;7.40;;;;;;;10.68;100.00;99185.63;1744552;82;21042;-67
2022/09/14 03:43:41;;;;;;;9.03;6.45;;;;;;;10.66;100.00;99178.27;1744564;82;21598;-67
2022/09/14 03:46:14;;;;;;;9.18;6.25;;;;;;;10.68;100.00;99180.36;1744579;82;21065;-68
2022/09/14 03:48:41;;;;;;;8.45;6.45;;;;;;;10.71;100.00;99182.81;1744888;82;21060;-67
2022/09/14 03:51:09;;;;;;;11.50;5.95;;;;;;;10.73;100.00;99187.17;1744653;82;21931;-66
2022/09/14 03:53:35;;;;;;;6.45;5.30;;;;;;;10.73;100.00;99189.80;1744739;82;21581;-67
2022/09/14 03:56:09;;;;;;;7.25;5.83;;;;;;;10.73;100.00;99197.23;1716764;82;21561;-68
2022/09/14 03:58:37;;;;;;;9.23;5.97;;;;;;;10.73;100.00;99200.34;1714743;83;21100;-67
2022/09/14 04:01:13;;;;;;;8.00;6.00;;;;;;;10.71;100.00;99203.88;1715005;83;21588;-68
2022/09/14 04:03:40;;;;;;;12.13;6.75;;;;;;;10.73;100.00;99205.12;1714851;83;21166;-67
2022/09/14 04:06:08;;;;;;;11.88;6.30;;;;;;;10.75;100.00;99206.38;1714896;83;21084;-68
2022/09/14 04:08:38;;;;;;;7.65;5.72;;;;;;;10.69;100.00;99200.48;1730750;82;21108;-67
2022/09/14 04:11:11;;;;;;;8.00;5.75;;;;;;;10.71;100.00;99210.47;1744730;82;21026;-68
2022/09/14 04:13:39;;;;;;;8.88;6.50;;;;;;;10.71;100.00;99203.88;1744391;82;21109;-67
2022/09/14 04:16:06;;;;;;;8.23;5.80;;;;;;;10.71;100.00;99203.88;1744779;82;21186;-67
2022/09/14 04:18:32;;;;;;;6.67;5.47;;;;;;;10.73;100.00;99205.12;1744602;82;21097;-68
2022/09/14 04:21:09;;;;;;;7.30;5.55;;;;;;;10.75;100.00;99201.11;1744627;82;21088;-68
2022/09/14 04:23:37;;;;;;;7.17;5.50;;;;;;;10.77;100.00;99212.42;1744744;82;21045;-66
2022/09/14 04:26:15;;;;;;;8.83;5.90;;;;;;;10.78;100.00;99215.42;1744518;82;21065;-68
2022/09/14 04:28:42;;;;;;;7.58;5.72;;;;;;;10.78;100.00;99223.32;1744863;82;21076;-67
2022/09/14 04:31:10;;;;;;;7.70;5.30;;;;;;;10.82;100.00;99230.14;1744466;82;21105;-67
2022/09/14 04:33:37;;;;;;;8.28;5.45;;;;;;;10.84;100.00;99229.59;1727154;82;21104;-68
2022/09/14 04:36:13;;;;;;;6.80;5.35;;;;;;;10.88;100.00;99225.84;1744898;82;21065;-68
2022/09/14 04:38:41;;;;;;;8.28;5.95;;;;;;;10.94;100.00;99222.90;1744759;82;21073;-66
2022/09/14 04:41:17;;;;;;;7.65;5.90;;;;;;;11.00;100.00;99216.47;1744644;82;21298;-68
2022/09/14 04:43:44;;;;;;;15.28;6.05;;;;;;;11.07;100.00;99217.84;1744294;82;21097;-66
2022/09/14 04:46:13;;;;;;;6.83;5.10;;;;;;;11.11;100.00;99218.91;1744770;82;21074;-67
2022/09/14 04:48:40;;;;;;;7.03;5.40;;;;;;;11.16;100.00;99219.98;1740782;82;21183;-67
2022/09/14 04:51:18;;;;;;;6.45;5.47;;;;;;;11.17;100.00;99215.55;1744898;82;21573;-67
2022/09/14 04:53:49;;;;;;;6.75;4.85;;;;;;;11.19;100.00;99222.91;1744672;82;21284;-68
2022/09/14 04:56:16;;;;;;;8.08;5.33;;;;;;;11.18;100.00;99217.24;1713702;83;21022;-67
2022/09/14 04:58:45;;;;;;;6.12;4.65;;;;;;;11.18;100.00;99215.48;1706271;83;21071;-66
2022/09/14 05:01:16;;;;;;;10.10;5.60;;;;;;;11.22;100.00;99220.10;1705507;84;21238;-68
2022/09/14 05:03:43;;;;;;;6.92;4.97;;;;;;;11.21;100.00;99217.09;1705197;83;21108;-66
2022/09/14 05:06:16;;;;;;;9.90;6.05;;;;;;;11.23;100.00;99220.03;1705564;84;21322;-67
2022/09/14 05:08:43;;;;;;;8.45;5.00;;;;;;;11.22;100.00;99218.78;1705318;84;21101;-67
2022/09/14 05:11:13;;;;;;;6.08;4.67;;;;;;;11.24;100.00;99215.13;1705033;84;21121;-66
2022/09/14 05:13:41;;;;;;;6.70;4.60;;;;;;;11.24;100.00;99225.67;1705546;84;21117;-67
2022/09/14 05:16:18;;;;;;;7.17;4.80;;;;;;;11.28;100.00;99226.38;1705503;84;21038;-68
2022/09/14 05:18:45;;;;;;;6.95;4.80;;;;;;;11.34;100.00;99234.80;1705447;84;22169;-66
2022/09/14 05:21:16;;;;;;;6.25;5.08;;;;;;;11.39;100.00;99231.91;1705537;84;21049;-67
2022/09/14 05:23:43;;;;;;;6.27;5.13;;;;;;;11.39;100.00;99233.67;1705997;84;21119;-68
2022/09/14 05:26:10;;;;;;;5.35;4.53;;;;;;;11.38;100.00;99236.78;1705436;84;21045;-68
2022/09/14 05:28:37;;;;;;;6.83;4.90;;;;;;;11.35;100.00;99235.64;1705598;84;21074;-67
2022/09/14 05:31:08;;;;;;;8.70;4.70;;;;;;;11.36;100.00;99245.23;1705796;84;21777;-66
2022/09/14 05:33:35;;;;;;;5.22;4.72;;;;;;;11.33;100.00;99255.48;1705455;84;21107;-67
2022/09/14 05:36:07;;;;;;;5.92;5.25;;;;;;;11.32;100.00;99255.59;1705806;84;21584;-66
2022/09/14 05:38:36;;;;;;;9.33;4.67;;;;;;;11.33;100.00;99253.32;1705547;84;21558;-67
2022/09/14 05:41:04;;;;;;;6.90;4.55;;;;;;;11.34;100.00;99253.69;1705658;84;21070;-67
2022/09/14 05:43:31;;;;;;;6.33;4.83;;;;;;;11.38;100.00;99255.70;1705573;84;21142;-67
2022/09/14 05:46:02;;;;;;;6.45;5.40;;;;;;;11.43;100.00;99251.88;1705912;84;21031;-68
2022/09/14 05:48:34;;;;;;;6.10;4.80;;;;;;;11.52;100.00;99247.89;1705496;84;21035;-69
2022/09/14 05:51:03;;;;;;;10.28;5.58;;;;;;;11.63;100.00;99238.92;1705435;84;21153;-67
2022/09/14 05:53:29;;;;;;;5.45;4.33;;;;;;;11.76;100.00;99238.63;1705988;84;21152;-68
2022/09/14 05:56:06;;;;;;;5.53;4.35;;;;;;;11.85;100.00;99230.67;1711062;83;21207;-67
2022/09/14 05:58:34;;;;;;;7.08;5.20;;;;;;;11.93;100.00;99236.38;1711884;83;21030;-66
2022/09/14 06:01:11;;;;;;;5.17;4.20;;;;;;;12.00;100.00;99243.95;1711965;83;21090;-68
2022/09/14 06:03:37;;;;;;;7.25;5.10;;;;;;;12.02;100.00;99244.72;1711418;83;21019;-68
2022/09/14 06:06:05;;;;;;;5.40;4.90;;;;;;;12.02;100.00;99238.97;1712223;83;21053;-68
2022/09/14 06:08:32;;;;;;;6.35;4.70;;;;;;;12.04;100.00;99238.89;1712334;83;21110;-67
2022/09/14 06:11:09;;;;;;;4.95;4.42;;;;;;;12.05;100.00;99236.14;1711659;83;21082;-68
2022/09/14 06:13:36;;;;;;;8.18;4.87;;;;;;;12.09;100.00;99237.67;1711768;82;21046;-66
2022/09/14 06:16:06;;;;;;;6.33;4.60;;;;;;;12.13;100.00;99239.69;1711959;83;21125;-67
2022/09/14 06:18:34;;;;;;;6.10;4.80;;;;;;;12.14;100.00;99242.69;1712091;83;21109;-67
2022/09/14 06:21:01;;;;;;;7.97;5.30;;;;;;;12.18;100.00;99240.26;1712260;83;21179;-68
2022/09/14 06:23:30;;;;;;;6.30;4.50;;;;;;;12.22;100.00;99235.19;1711998;83;21535;-65
2022/09/14 06:25:58;;;;;;;7.00;4.95;;;;;;;12.26;100.00;99234.08;1712204;83;21070;-67
2022/09/14 06:28:25;;;;;;;7.08;4.22;;;;;;;12.33;100.00;99236.73;1711959;83;21535;-68
2022/09/14 06:30:51;;;;;;;7.75;4.80;;;;;;;12.37;100.00;99236.92;1712097;83;21041;-68
2022/09/14 06:33:18;;;;;;;5.78;4.45;;;;;;;12.43;100.00;99229.59;1711915;82;21854;-67
2022/09/14 06:36:01;;;;;;;8.75;4.30;;;;;;;12.49;100.00;99235.38;1711828;83;21094;-68
2022/09/14 06:38:28;;;;;;;10.43;4.08;;;;;;;12.57;100.00;99229.63;1712332;83;21070;-67
2022/09/14 06:40:58;;;;;;;5.53;4.50;;;;;;;12.69;100.00;99234.16;1711810;83;21062;-69
2022/09/14 06:43:26;;;;;;;6.70;4.40;;;;;;;12.80;100.00;99235.69;1712205;83;21094;-66
2022/09/14 06:46:19;;;;;;;10.28;4.03;;;;;;;12.91;100.00;99230.25;1711958;82;21089;-68
2022/09/14 06:48:49;;;;;;;8.00;4.42;;;;;;;13.05;100.00;99224.95;1711936;83;21057;-67
2022/09/14 06:51:29;;;;;;;6.17;3.92;;;;;;;13.21;100.00;99220.89;1711977;83;21054;-68
2022/09/14 06:53:58;;;;;;;6.53;3.62;;;;;;;13.32;100.00;99221.55;1712016;83;21028;-66
2022/09/14 06:56:32;;;;;;;4.90;4.20;;;;;;;13.41;100.00;99210.40;1707121;84;21513;-67
2022/09/14 06:59:01;;;;;;;4.97;4.28;;;;;;;13.45;100.00;99212.39;1693414;83;21120;-66
2022/09/14 07:01:28;;;;;;;5.08;4.30;;;;;;;13.44;100.00;99212.87;1688161;85;22181;-68
2022/09/14 07:03:56;;;;;;;6.75;3.77;;;;;;;13.41;100.00;99213.05;1688508;85;21027;-70
2022/09/14 07:06:25;;;;;;;5.37;4.10;;;;;;;13.40;100.00;99212.20;1688641;84;21058;-68
2022/09/14 07:08:53;;;;;;;6.03;4.42;;;;;;;13.44;100.00;99212.87;1688711;84;21078;-68
2022/09/14 07:11:28;;;;;;;4.47;4.03;;;;;;;13.47;100.00;99213.98;1688336;85;21163;-65
2022/09/14 07:13:58;;;;;;;5.70;3.75;;;;;;;13.47;100.00;99210.02;1688465;84;21035;-67
2022/09/14 07:16:26;;;;;;;4.28;3.33;;;;;;;13.52;100.00;99203.95;1688703;84;21099;-68
2022/09/14 07:18:55;;;;;;;3.83;3.45;;;;;;;13.67;100.00;99197.33;1688402;85;21582;-68
2022/09/14 07:21:22;;;;;;;4.83;3.55;;;;;;;13.89;100.00;99206.02;1688807;84;21070;-67
2022/09/14 07:23:49;;;;;;;3.98;2.98;;;;;;;14.22;100.00;99206.45;1688513;84;21257;-68
2022/09/14 07:26:29;;;;;;;7.87;3.83;;;;;;;14.58;100.00;99205.42;1688281;85;20996;-66
2022/09/14 07:28:58;;;;;;;4.80;3.67;;;;;;;14.92;100.00;99199.13;1688439;85;21023;-68
2022/09/14 07:31:32;;;;;;;5.72;3.20;;;;;;;15.26;100.00;99201.58;1688581;85;21062;-69
2022/09/14 07:34:02;;;;;;;5.90;3.75;;;;;;;15.59;100.00;99195.64;1688807;84;21089;-68
2022/09/14 07:36:30;;;;;;;3.42;2.90;;;;;;;15.96;100.00;99188.98;1688834;85;21292;-68
2022/09/14 07:38:57;;;;;;;6.85;2.95;;;;;;;16.15;100.00;99187.99;1688426;85;21160;-68
2022/09/14 07:41:28;;;;;;;4.25;2.95;;;;;;;16.06;100.00;99187.36;1688703;84;21086;-69
2022/09/14 07:43:59;;;;;;;5.67;3.55;;;;;;;16.04;100.00;99181.31;1688437;84;21040;-69
2022/09/14 07:46:27;;;;;;;4.03;2.80;;;;;;;16.10;100.00;99190.61;1688595;85;21098;-68
2022/09/14 07:48:56;;;;;;;3.60;2.67;;;;;;;16.28;100.00;99184.41;1688611;84;21242;-68
2022/09/14 07:51:23;;;;;;;4.62;2.50;;;;;;;16.46;100.00;99189.64;1688733;85;21098;-68
2022/09/14 07:53:49;;;;;;;3.40;2.45;;;;;;;16.88;100.00;99183.33;1688371;85;21063;-69
2022/09/14 07:56:16;;;;;;;4.17;2.58;;;;;;;17.55;99.64;99178.93;1688861;85;21071;-68
2022/09/14 07:58:43;;;;;;;3.17;2.27;;;;;;;18.19;97.04;99181.64;1697278;83;21097;-68
2022/09/14 08:01:13;;;;;;;3.40;2.55;;;;;;;18.95;92.76;99176.11;1706983;83;21894;-68
2022/09/14 08:03:42;;;;;;;4.75;2.50;;;;;;;19.80;89.31;99169.99;1706853;84;21057;-68
2022/09/14 08:06:21;;;;;;;4.28;2.22;;;;;;;20.51;85.25;99173.70;1707177;84;21073;-69
2022/09/14 08:08:49;;;;;;;3.05;2.22;;;;;;;21.12;77.80;99169.75;1707337;84;21561;-68
2022/09/14 08:11:25;;;;;;;7.03;3.00;;;;;;;21.52;74.66;99166.73;1707325;83;21049;-68
2022/09/14 08:13:58;;;;;;;4.85;2.15;;;;;;;21.93;73.39;99167.67;1707224;84;21223;-68
2022/09/14 08:16:26;;;;;;;2.33;2.12;;;;;;;22.54;70.72;99156.63;1706709;84;21602;-66
2022/09/14 08:19:00;;;;;;;5.30;2.45;;;;;;;22.94;69.85;99148.50;1707230;83;21046;-67
2022/09/14 08:21:27;;;;;;;3.67;2.45;;;;;;;23.12;66.58;99146.60;1706088;83;21053;-68
2022/09/14 08:23:56;;;;;;;2.20;2.00;;;;;;;22.98;64.73;99147.15;1707413;84;21097;-67
2022/09/14 08:26:25;;;;;;;2.75;1.77;;;;;;;22.77;66.38;99144.86;1707075;84;21638;-68
2022/09/14 08:28:51;;;;;;;3.67;2.83;;;;;;;22.64;65.80;99153.36;1707089;84;21053;-69
2022/09/14 08:31:20;;;;;;;2.27;2.08;;;;;;;22.19;63.47;99143.59;1707070;83;21082;-69
2022/09/14 08:33:53;;;;;;;5.17;2.70;;;;;;;21.67;58.90;99147.47;1706895;84;21531;-69
2022/09/14 08:36:21;;;;;;;2.92;2.45;;;;;;;21.29;60.15;99134.64;1686981;84;21074;-68
2022/09/14 08:38:47;;;;;;;3.25;2.25;;;;;;;21.06;60.36;99138.22;1706954;84;21141;-69
2022/09/14 08:41:54;;;;;;;5.95;2.27;;;;;;;21.30;61.23;99137.66;1707182;84;21061;-68
2022/09/14 08:44:40;;;;;;;5.83;2.92;;;;;;;21.87;59.67;99134.27;1709247;82;21586;-67
2022/09/14 08:47:17;;;;;;;5.58;2.80;;;;;;;22.17;57.42;99128.16;1735995;82;21062;-68
2022/09/14 08:50:18;;;;;;;4.72;2.60;;;;;;;22.31;56.85;99128.97;1736088;82;21046;-69
2022/09/14 08:52:49;;;;;;;3.33;2.60;;;;;;;22.10;57.04;99130.61;1736064;82;21307;-67
2022/09/14 08:55:45;;;;;;;4.30;2.85;;;;;;;21.46;56.71;99124.48;1735901;82;21629;-69
2022/09/14 08:58:33;;;;;;;5.25;2.15;;;;;;;20.90;59.38;99126.80;1736176;82;21062;-69
2022/09/14 09:01:38;;;;;;;3.50;2.77;;;;;;;20.59;60.79;99124.38;1736477;82;21086;-68
2022/09/14 09:04:25;;;;;;;3.52;2.90;;;;;;;20.44;61.67;99123.11;1736336;82;21042;-69
2022/09/14 09:07:23;;;;;;;6.53;2.92;;;;;;;20.27;61.85;99114.84;1727710;82;21511;-69
2022/09/14 09:09:55;;;;;;;5.15;3.00;;;;;;;20.09;61.34;99123.25;1736238;82;21085;-67
2022/09/14 09:12:29;;;;;;;6.08;2.90;;;;;;;19.91;60.83;99115.93;1736091;82;21049;-69
2022/09/14 09:15:00;;;;;;;8.68;3.27;;;;;;;19.88;62.53;99122.90;1734893;82;21109;-68
2022/09/14 09:17:34;;;;;;;6.80;3.52;;;;;;;19.68;63.05;99114.49;1735968;82;21612;-69
2022/09/14 09:20:16;;;;;;;11.15;3.50;;;;;;;19.36;64.43;99116.91;1736351;82;21210;-67
2022/09/14 09:23:02;;;;;;;7.67;3.40;;;;;;;18.92;65.64;99119.03;1712962;82;21109;-68
2022/09/14 09:25:34;;;;;;;6.55;3.12;;;;;;;18.69;67.95;99117.50;1736274;82;20995;-68
2022/09/14 09:28:04;;;;;;;9.50;3.55;;;;;;;18.39;67.85;99123.16;1734596;82;21645;-68
2022/09/14 09:30:30;;;;;;;4.47;3.17;;;;;;;18.17;68.96;99122.30;1736694;82;21101;-69
2022/09/14 09:32:57;;;;;;;6.35;3.05;;;;;;;17.98;68.54;99125.67;1736382;82;22125;-68
2022/09/14 09:35:26;;;;;;;5.85;2.90;;;;;;;17.75;69.54;99127.56;1733715;82;21069;-68
2022/09/14 09:37:57;;;;;;;9.45;2.95;;;;;;;17.43;71.73;99124.04;1735896;82;21085;-67
2022/09/14 09:40:34;;;;;;;6.92;3.35;;;;;;;17.20;74.52;99124.08;1736623;82;21057;-67
2022/09/14 09:43:12;;;;;;;8.43;3.00;;;;;;;17.07;75.67;99129.55;1735980;82;21041;-69
2022/09/14 09:46:03;;;;;;;5.37;2.60;;;;;;;16.98;75.77;99128.47;1736521;82;21248;-68
2022/09/14 09:48:43;;;;;;;11.63;3.10;;;;;;;16.88;76.27;99122.17;1736810;82;21538;-67
2022/09/14 09:51:26;;;;;;;9.45;3.20;;;;;;;16.70;76.42;99121.80;1736689;82;21113;-69
2022/09/14 09:54:00;;;;;;;9.55;2.87;;;;;;;16.55;77.64;99123.83;1726324;82;21538;-68
2022/09/14 09:56:35;;;;;;;6.67;3.02;;;;;;;16.51;78.36;99126.84;1694042;83;21071;-68
2022/09/14 09:59:01;;;;;;;7.28;3.12;;;;;;;16.45;79.04;99124.64;1711281;83;21061;-68
2022/09/14 10:01:32;;;;;;;5.75;2.92;;;;;;;16.40;79.94;99126.33;1720335;83;21107;-68
2022/09/14 10:04:04;;;;;;;5.95;3.02;;;;;;;16.33;80.69;99126.44;1720548;83;21062;-67
2022/09/14 10:06:42;;;;;;;5.85;3.15;;;;;;;16.25;81.00;99126.20;1719180;83;21111;-68
2022/09/14 10:09:19;;;;;;;5.40;2.55;;;;;;;16.18;81.68;99121.00;1720656;82;21081;-67
2022/09/14 10:11:47;;;;;;;6.70;2.67;;;;;;;16.14;82.47;99130.50;1720402;83;21234;-67
2022/09/14 10:14:31;;;;;;;4.92;2.65;;;;;;;16.08;82.92;99128.79;1720511;82;21094;-67
2022/09/14 10:17:19;;;;;;;3.17;2.72;;;;;;;16.00;82.63;99125.40;1715934;83;21114;-69
2022/09/14 10:19:52;;;;;;;10.38;3.30;;;;;;;15.91;83.36;99129.58;1720550;83;21062;-68
2022/09/14 10:22:29;;;;;;;8.73;3.12;;;;;;;15.81;84.35;99127.75;1720302;83;21126;-67
2022/09/14 10:25:21;;;;;;;4.58;3.20;;;;;;;15.83;84.89;99131.14;1720499;83;21086;-68
2022/09/14 10:27:58;;;;;;;7.47;3.65;;;;;;;15.76;84.13;99133.86;1720222;83;21075;-67
2022/09/14 10:30:48;;;;;;;6.95;3.72;;;;;;;15.68;84.86;99127.77;1720445;82;21077;-70
2022/09/14 10:33:14;;;;;;;6.75;3.10;;;;;;;15.53;85.86;99129.77;1720631;82;21125;-68
2022/09/14 10:36:12;;;;;;;8.33;4.22;;;;;;;15.48;88.14;99126.58;1720790;83;21067;-70
2022/09/14 10:38:58;;;;;;;7.20;4.72;;;;;;;15.44;89.59;99131.28;1720345;83;22217;-71
2022/09/14 10:41:48;;;;;;;8.05;4.62;;;;;;;15.39;93.46;99135.20;1720010;83;21103;-69
2022/09/14 10:44:26;;;;;;;8.40;4.53;;;;;;;15.34;93.37;99134.70;1720351;83;21095;-69
2022/09/14 10:47:31;;;;;;;5.62;4.28;;;;;;;15.29;95.31;99135.88;1720184;83;21397;-68
2022/09/14 10:50:42;;;;;;;7.53;4.85;;;;;;;15.23;95.96;99128.84;1720039;83;21670;-68
2022/09/14 10:53:41;;;;;;;14.53;5.17;;;;;;;15.17;99.50;99130.14;1658861;85;21138;-68
2022/09/14 10:56:25;;;;;;;7.90;5.80;;;;;;;15.19;100.00;99132.69;1658540;86;21091;-71
2022/09/14 10:59:25;;;;;;;12.37;6.97;;;;;;;15.26;100.00;99136.11;1718479;82;21077;-70
2022/09/14 11:02:23;;;;;;;16.80;11.83;;;;;;;15.30;100.00;99124.81;1744739;82;21038;-69
2022/09/14 11:05:08;;;;;;;11.00;7.20;;;;;;;15.34;100.00;99114.81;1744750;82;21055;-70
2022/09/14 11:08:19;;;;;;;13.48;8.55;;;;;;;15.37;100.00;99113.25;1744691;82;21046;-68
2022/09/14 11:11:21;;;;;;;13.75;8.38;;;;;;;15.38;100.00;99113.14;1744819;82;21054;-69
2022/09/14 11:14:16;;;;;;;10.90;7.95;;;;;;;15.40;100.00;99107.73;1744659;82;21052;-68
2022/09/14 11:16:56;;;;;;;6.97;5.67;;;;;;;15.47;100.00;99111.63;1744716;81;21530;-68
2022/09/14 11:19:53;;;;;;;6.53;4.95;;;;;;;15.50;100.00;99110.06;1744745;82;21077;-70
2022/09/14 11:22:51;;;;;;;6.40;4.67;;;;;;;15.53;100.00;99107.21;1744472;82;21801;-69
2022/09/14 11:25:29;;;;;;;8.08;4.58;;;;;;;15.39;100.00;99103.38;1744053;82;21667;-69
2022/09/14 11:28:13;;;;;;;10.68;5.08;;;;;;;15.29;100.00;99109.34;1700668;82;21088;-70
2022/09/14 11:30:48;;;;;;;5.97;4.25;;;;;;;15.29;100.00;99104.53;1744706;82;21318;-68
2022/09/14 11:33:42;;;;;;;10.10;4.40;;;;;;;15.31;100.00;99107.44;1744611;81;21065;-69
2022/09/14 11:36:17;;;;;;;7.67;5.10;;;;;;;15.23;100.00;99104.52;1745143;82;21608;-68
2022/09/14 11:38:49;;;;;;;10.18;4.87;;;;;;;15.16;100.00;99097.97;1744740;82;21640;-68
2022/09/14 11:41:27;;;;;;;6.33;4.80;;;;;;;15.08;100.00;99102.96;1744137;82;21006;-69
2022/09/14 11:44:10;;;;;;;7.47;4.67;;;;;;;15.03;100.00;99102.45;1744731;82;21060;-68
2022/09/14 11:46:45;;;;;;;11.35;5.55;;;;;;;14.88;100.00;99088.02;1700867;82;21092;-69
2022/09/14 11:49:51;;;;;;;7.85;5.37;;;;;;;14.81;100.00;99092.03;1744345;82;21184;-69
2022/09/14 11:52:20;;;;;;;14.20;6.35;;;;;;;14.77;100.00;99083.95;1744885;82;21680;-70
2022/09/14 11:54:48;;;;;;;8.83;6.15;;;;;;;14.80;100.00;99087.70;1732604;82;21107;-68
2022/09/14 11:57:25;;;;;;;7.87;5.87;;;;;;;14.83;100.00;99086.15;1715277;83;21551;-69
2022/09/14 11:59:56;;;;;;;8.38;5.97;;;;;;;14.86;100.00;99083.30;1716866;83;21058;-69